createdAt,value
2022-10-25T00:02:30.144Z,3.40
2022-10-25T00:04:59.977Z,3.10
2022-10-25T00:07:29.799Z,3.73
2022-10-25T00:09:59.567Z,3.53
2022-10-25T00:12:29.404Z,3.67
2022-10-25T00:15:04.124Z,3.55
2022-10-25T00:17:34.823Z,3.60
2022-10-25T00:20:06.512Z,4.07
2022-10-25T00:22:36.551Z,3.40
2022-10-25T00:25:09.590Z,3.42
2022-10-25T00:27:39.502Z,4.03
2022-10-25T00:30:11.800Z,3.60
2022-10-25T00:32:41.607Z,3.90
2022-10-25T00:35:11.382Z,2.98
2022-10-25T00:37:41.148Z,3.50
2022-10-25T00:40:11.881Z,3.62
2022-10-25T00:42:41.721Z,3.67
2022-10-25T00:45:26.375Z,3.70
2022-10-25T00:48:05.086Z,3.80
2022-10-25T00:50:43.563Z,3.27
2022-10-25T00:53:16.733Z,3.25
2022-10-25T00:55:49.532Z,3.70
2022-10-25T00:58:22.400Z,3.50
2022-10-25T01:00:52.215Z,3.57
2022-10-25T01:03:24.100Z,3.27
2022-10-25T01:05:54.712Z,3.50
2022-10-25T01:08:25.306Z,3.52
2022-10-25T01:10:55.105Z,3.33
2022-10-25T01:13:25.021Z,3.17
2022-10-25T01:15:57.811Z,3.63
2022-10-25T01:18:48.226Z,3.42
2022-10-25T01:21:32.551Z,3.50
2022-10-25T01:24:11.102Z,3.73
2022-10-25T01:26:49.629Z,3.73
2022-10-25T01:29:41.359Z,3.35
2022-10-25T01:32:20.857Z,2.72
2022-10-25T01:35:12.017Z,3.30
2022-10-25T01:38:00.823Z,2.93
2022-10-25T01:40:36.054Z,3.30
2022-10-25T01:43:17.690Z,3.17
2022-10-25T01:45:50.119Z,3.60
2022-10-25T01:48:25.698Z,3.30
2022-10-25T01:50:55.213Z,3.60
2022-10-25T01:53:24.984Z,3.17
2022-10-25T01:55:57.751Z,3.83
2022-10-25T01:58:33.263Z,4.15
2022-10-25T02:01:21.013Z,3.67
2022-10-25T02:04:08.401Z,3.70
2022-10-25T02:06:41.525Z,3.65
2022-10-25T02:09:20.091Z,3.67
2022-10-25T02:11:51.385Z,3.70
2022-10-25T02:14:26.562Z,4.27
2022-10-25T02:17:05.014Z,4.30
2022-10-25T02:19:37.524Z,4.80
2022-10-25T02:24:52.511Z,4.58
2022-10-25T02:27:24.510Z,4.87
2022-10-25T02:29:55.719Z,4.43
2022-10-25T02:32:26.282Z,5.53
2022-10-25T02:34:56.083Z,5.53
2022-10-25T02:37:25.895Z,4.83
2022-10-25T02:39:56.080Z,5.20
2022-10-25T02:42:25.528Z,5.97
2022-10-25T02:44:55.124Z,5.65
2022-10-25T02:47:24.949Z,5.33
2022-10-25T02:49:54.684Z,5.10
2022-10-25T02:52:24.135Z,4.53
2022-10-25T02:54:53.850Z,4.63
2022-10-25T02:57:23.592Z,5.00
2022-10-25T02:59:53.065Z,5.10
2022-10-25T03:02:22.799Z,5.08
2022-10-25T03:04:52.564Z,5.63
2022-10-25T03:07:22.649Z,5.15
2022-10-25T03:09:52.670Z,5.58
2022-10-25T03:12:22.125Z,5.53
2022-10-25T03:14:51.863Z,5.63
2022-10-25T03:17:21.636Z,5.20
2022-10-25T03:19:51.714Z,5.08
2022-10-25T03:22:21.237Z,5.00
2022-10-25T03:24:51.021Z,5.33
2022-10-25T03:27:20.761Z,5.17
2022-10-25T03:29:50.296Z,4.40
2022-10-25T03:32:20.052Z,4.60
2022-10-25T03:34:49.834Z,4.23
2022-10-25T03:37:19.566Z,4.63
2022-10-25T03:39:49.628Z,3.83
2022-10-25T03:42:19.311Z,3.70
2022-10-25T03:44:49.306Z,3.47
2022-10-25T03:47:19.323Z,3.53
2022-10-25T03:49:49.059Z,4.03
2022-10-25T03:52:18.841Z,3.80
2022-10-25T03:54:48.592Z,3.87
2022-10-25T03:57:18.558Z,3.83
2022-10-25T03:59:48.702Z,4.33
2022-10-25T04:02:18.244Z,3.70
2022-10-25T04:04:47.991Z,3.93
2022-10-25T04:07:17.807Z,4.27
2022-10-25T04:09:47.894Z,4.70
2022-10-25T04:12:17.506Z,3.25
2022-10-25T04:14:47.593Z,4.30
2022-10-25T04:17:17.625Z,3.22
2022-10-25T04:19:47.385Z,3.63
2022-10-25T04:22:17.115Z,3.70
2022-10-25T04:24:47.220Z,4.70
2022-10-25T04:27:17.025Z,3.47
2022-10-25T04:29:46.846Z,3.50
2022-10-25T04:32:16.601Z,3.93
2022-10-25T04:34:46.511Z,3.63
2022-10-25T04:37:16.590Z,4.37
2022-10-25T04:39:46.651Z,4.15
2022-10-25T04:42:17.583Z,3.30
2022-10-25T04:44:47.613Z,3.40
2022-10-25T04:47:17.681Z,3.62
2022-10-25T04:49:47.701Z,3.02
2022-10-25T04:52:17.374Z,3.20
2022-10-25T04:54:47.070Z,3.10
2022-10-25T04:57:16.844Z,3.03
2022-10-25T04:59:46.653Z,3.37
2022-10-25T05:02:16.770Z,2.80
2022-10-25T05:04:46.573Z,3.33
2022-10-25T05:07:20.955Z,3.10
2022-10-25T05:09:50.694Z,2.70
2022-10-25T05:12:20.436Z,2.93
2022-10-25T05:14:50.523Z,3.00
2022-10-25T05:17:20.561Z,3.37
2022-10-25T05:19:50.645Z,2.50
2022-10-25T05:22:20.185Z,2.93
2022-10-25T05:24:50.307Z,2.95
2022-10-25T05:27:20.322Z,3.10
2022-10-25T05:29:50.058Z,2.57
2022-10-25T05:32:19.520Z,3.17
2022-10-25T05:34:49.273Z,2.90
2022-10-25T05:37:19.023Z,3.20
2022-10-25T05:39:48.807Z,2.23
2022-10-25T05:42:18.589Z,2.60
2022-10-25T05:44:48.637Z,3.42
2022-10-25T05:47:18.742Z,2.83
2022-10-25T05:49:48.795Z,3.35
2022-10-25T05:52:18.252Z,3.23
2022-10-25T05:54:48.026Z,3.73
2022-10-25T05:57:17.841Z,3.67
2022-10-25T05:59:47.317Z,3.15
2022-10-25T06:02:17.282Z,3.10
2022-10-25T06:04:51.603Z,2.83
2022-10-25T06:07:18.563Z,4.10
2022-10-25T06:09:48.619Z,4.05
2022-10-25T06:12:18.056Z,3.40
2022-10-25T06:14:47.832Z,4.13
2022-10-25T06:17:17.581Z,3.83
2022-10-25T06:19:47.688Z,3.90
2022-10-25T06:22:17.453Z,3.75
2022-10-25T06:24:47.212Z,4.00
2022-10-25T06:27:16.954Z,3.47
2022-10-25T06:29:46.697Z,3.63
2022-10-25T06:32:16.184Z,3.63
2022-10-25T06:34:45.934Z,3.73
2022-10-25T06:37:16.044Z,3.53
2022-10-25T06:39:45.783Z,4.17
2022-10-25T06:42:15.239Z,5.03
2022-10-25T06:44:45.571Z,4.87
2022-10-25T06:47:17.896Z,4.58
2022-10-25T06:49:47.331Z,4.40
2022-10-25T06:52:17.082Z,5.47
2022-10-25T06:54:46.834Z,5.80
2022-10-25T06:57:16.650Z,6.40
2022-10-25T06:59:46.400Z,6.30
2022-10-25T07:02:16.513Z,6.20
2022-10-25T07:04:46.381Z,6.50
2022-10-25T07:07:16.218Z,6.40
2022-10-25T07:09:45.970Z,6.53
2022-10-25T07:12:15.522Z,6.37
2022-10-25T07:14:45.437Z,7.07
2022-10-25T07:17:15.174Z,6.77
2022-10-25T07:19:44.907Z,6.57
2022-10-25T07:22:14.369Z,6.50
2022-10-25T07:24:44.110Z,6.30
2022-10-25T07:27:13.858Z,5.90
2022-10-25T07:29:44.343Z,6.47
2022-10-25T07:32:14.096Z,6.10
2022-10-25T07:34:43.924Z,7.40
2022-10-25T07:37:13.697Z,5.90
2022-10-25T07:39:43.349Z,6.45
2022-10-25T07:42:13.081Z,6.65
2022-10-25T07:44:42.868Z,5.97
2022-10-25T07:47:12.694Z,5.90
2022-10-25T07:49:42.430Z,6.27
2022-10-25T07:52:12.177Z,7.20
2022-10-25T07:57:11.773Z,7.13
2022-10-25T07:59:41.527Z,6.30
2022-10-25T08:02:13.104Z,6.80
2022-10-25T08:04:44.146Z,6.92
2022-10-25T08:07:14.183Z,7.28
2022-10-25T08:09:43.943Z,7.17
2022-10-25T08:12:13.776Z,7.62
2022-10-25T08:14:46.222Z,7.43
2022-10-25T08:17:16.430Z,8.87
2022-10-25T08:19:50.942Z,8.20
2022-10-25T08:22:17.655Z,9.83
2022-10-25T08:24:47.735Z,10.40
2022-10-25T08:27:17.504Z,10.47
2022-10-25T08:29:47.451Z,11.57
2022-10-25T08:32:17.687Z,12.00
2022-10-25T08:34:47.454Z,12.63
2022-10-25T08:37:17.204Z,13.17
2022-10-25T08:39:46.973Z,12.47
2022-10-25T08:42:19.825Z,13.13
2022-10-25T08:44:58.643Z,12.70
2022-10-25T08:47:53.009Z,12.68
2022-10-25T08:50:25.855Z,12.05
2022-10-25T08:52:59.324Z,13.43
2022-10-25T08:55:41.575Z,12.68
2022-10-25T08:58:19.970Z,13.98
2022-10-25T09:00:50.669Z,12.55
2022-10-25T09:03:26.145Z,11.95
2022-10-25T09:06:07.497Z,11.77
2022-10-25T09:08:46.215Z,11.80
2022-10-25T09:11:39.729Z,13.10
2022-10-25T09:14:16.779Z,11.90
2022-10-25T09:16:51.953Z,10.93
2022-10-25T09:19:42.634Z,11.07
2022-10-25T09:22:17.992Z,11.12
2022-10-25T09:25:05.099Z,11.57
2022-10-25T09:27:40.069Z,11.20
2022-10-25T09:30:13.401Z,11.22
2022-10-25T09:32:51.744Z,10.90
2022-10-25T09:35:30.773Z,10.58
2022-10-25T09:38:03.337Z,10.75
2022-10-25T09:40:47.220Z,12.00
2022-10-25T09:43:17.345Z,11.07
2022-10-25T09:45:50.133Z,11.47
2022-10-25T09:48:31.414Z,10.32
2022-10-25T09:51:13.159Z,10.63
2022-10-25T09:53:44.944Z,10.87
2022-10-25T09:56:16.380Z,11.03
2022-10-25T09:58:48.460Z,10.83
2022-10-25T10:01:24.341Z,10.65
2022-10-25T10:03:56.850Z,10.28
2022-10-25T10:06:29.404Z,10.45
2022-10-25T10:09:05.032Z,10.47
2022-10-25T10:11:36.745Z,10.15
2022-10-25T10:14:20.970Z,9.90
2022-10-25T10:16:54.433Z,8.97
2022-10-25T10:19:32.150Z,9.20
2022-10-25T10:22:04.474Z,8.60
2022-10-25T10:24:38.620Z,9.00
2022-10-25T10:27:22.908Z,8.35
2022-10-25T10:30:01.622Z,8.00
2022-10-25T10:32:34.103Z,8.20
2022-10-25T10:35:06.416Z,7.77
2022-10-25T10:37:37.818Z,8.00
2022-10-25T10:40:12.452Z,7.97
2022-10-25T10:42:42.700Z,7.93
2022-10-25T10:45:17.477Z,7.73
2022-10-25T10:47:56.234Z,6.87
2022-10-25T10:50:32.681Z,6.15
2022-10-25T10:53:22.561Z,5.10
2022-10-25T10:55:57.789Z,5.78
2022-10-25T10:58:31.746Z,5.20
2022-10-25T11:01:10.098Z,5.30
2022-10-25T11:03:59.077Z,5.60
2022-10-25T11:06:35.782Z,5.50
2022-10-25T11:09:20.288Z,5.97
2022-10-25T11:12:10.357Z,5.77
2022-10-25T11:14:40.177Z,4.70
2022-10-25T11:17:18.424Z,4.53
2022-10-25T11:19:59.909Z,4.10
2022-10-25T11:22:35.373Z,4.30
2022-10-25T11:25:34.887Z,4.73
2022-10-25T11:28:29.468Z,5.17
2022-10-25T11:31:10.812Z,5.20
2022-10-25T11:34:07.872Z,5.33
2022-10-25T11:36:48.956Z,4.70
2022-10-25T11:39:33.802Z,4.90
2022-10-25T11:42:21.382Z,4.53
2022-10-25T11:45:02.826Z,4.00
2022-10-25T11:47:44.640Z,4.15
2022-10-25T11:50:29.534Z,3.18
2022-10-25T11:53:02.321Z,3.27
2022-10-25T11:55:52.614Z,2.80
2022-10-25T11:58:59.264Z,3.03
2022-10-25T12:01:31.928Z,2.90
2022-10-25T12:04:04.794Z,3.20
2022-10-25T12:06:46.514Z,2.90
2022-10-25T12:09:36.637Z,3.30
2022-10-25T12:12:13.779Z,2.45
2022-10-25T12:14:46.320Z,3.00
2022-10-25T12:17:31.142Z,3.03
2022-10-25T12:20:04.054Z,3.10
2022-10-25T12:22:46.055Z,2.70
2022-10-25T12:25:21.544Z,3.08
2022-10-25T12:27:59.125Z,3.37
2022-10-25T12:30:29.913Z,3.47
2022-10-25T12:33:02.770Z,4.10
2022-10-25T12:35:35.563Z,3.60
2022-10-25T12:38:09.470Z,4.13
2022-10-25T12:40:42.741Z,3.93
2022-10-25T12:43:18.747Z,3.98
2022-10-25T12:46:02.981Z,4.00
2022-10-25T12:48:56.215Z,4.03
2022-10-25T12:51:46.887Z,3.05
2022-10-25T12:54:31.435Z,2.87
2022-10-25T12:57:06.874Z,2.60
2022-10-25T12:59:45.505Z,2.03
2022-10-25T13:02:32.994Z,2.03
2022-10-25T13:05:08.235Z,2.27
2022-10-25T13:07:39.602Z,2.03
2022-10-25T13:13:07.656Z,1.80
2022-10-25T13:15:48.472Z,1.87
2022-10-25T13:18:29.735Z,2.10
2022-10-25T13:21:05.183Z,1.87
2022-10-25T13:23:53.751Z,1.90
2022-10-25T13:26:25.737Z,1.72
2022-10-25T13:29:01.818Z,2.30
2022-10-25T13:31:40.294Z,2.40
2022-10-25T13:34:17.074Z,1.67
2022-10-25T13:36:58.276Z,1.83
2022-10-25T13:39:45.630Z,1.70
2022-10-25T13:42:21.042Z,2.00
2022-10-25T13:45:09.091Z,1.97
2022-10-25T13:47:50.513Z,1.80
2022-10-25T13:50:33.077Z,1.63
2022-10-25T13:53:08.758Z,1.50
2022-10-25T13:55:40.711Z,1.87
2022-10-25T13:58:32.637Z,1.77
2022-10-25T14:01:22.102Z,1.87
2022-10-25T14:04:10.793Z,1.70
2022-10-25T14:06:42.335Z,1.90
2022-10-25T14:09:36.332Z,1.93
2022-10-25T14:12:15.610Z,1.75
2022-10-25T14:14:54.246Z,1.35
2022-10-25T14:17:29.680Z,1.30
2022-10-25T14:20:02.322Z,1.27
2022-10-25T14:22:35.248Z,1.47
2022-10-25T14:25:25.305Z,1.35
2022-10-25T14:28:10.356Z,1.57
2022-10-25T14:30:45.237Z,1.47
2022-10-25T14:33:39.281Z,1.53
2022-10-25T14:36:22.265Z,1.72
2022-10-25T14:39:00.944Z,1.50
2022-10-25T14:41:33.061Z,2.00
2022-10-25T14:44:03.933Z,2.00
2022-10-25T14:46:34.049Z,1.50
2022-10-25T14:49:03.966Z,1.90
2022-10-25T14:51:38.949Z,2.00
2022-10-25T14:54:16.670Z,1.40
2022-10-25T14:56:49.472Z,2.03
2022-10-25T14:59:43.193Z,1.57
2022-10-25T15:02:28.435Z,1.82
2022-10-25T15:05:00.109Z,1.87
2022-10-25T15:07:35.782Z,1.97
2022-10-25T15:10:07.437Z,1.90
2022-10-25T15:12:37.153Z,1.70
2022-10-25T15:15:22.617Z,1.45
2022-10-25T15:17:53.392Z,1.70
2022-10-25T15:20:28.960Z,1.32
2022-10-25T15:23:07.207Z,1.40
2022-10-25T15:25:39.200Z,1.80
2022-10-25T15:28:13.812Z,1.60
2022-10-25T15:30:52.095Z,1.63
2022-10-25T15:33:27.743Z,1.50
2022-10-25T15:36:00.320Z,1.63
2022-10-25T15:39:05.290Z,1.53
2022-10-25T15:41:07.319Z,1.67
2022-10-25T15:43:37.060Z,1.63
2022-10-25T15:46:10.303Z,1.80
2022-10-25T15:48:43.268Z,2.20
2022-10-25T15:51:13.362Z,2.37
2022-10-25T15:53:43.136Z,1.70
2022-10-25T15:56:15.405Z,2.35
2022-10-25T15:58:45.487Z,1.77
2022-10-25T16:01:15.804Z,1.97
2022-10-25T16:03:45.638Z,2.30
2022-10-25T16:06:15.632Z,1.80
2022-10-25T16:08:45.713Z,2.55
2022-10-25T16:11:18.612Z,2.10
2022-10-25T16:13:51.312Z,1.77
2022-10-25T16:16:45.359Z,2.10
2022-10-25T16:19:03.605Z,2.73
2022-10-25T16:21:33.228Z,2.33
2022-10-25T16:24:02.963Z,3.13
2022-10-25T16:26:44.440Z,2.07
2022-10-25T16:29:17.185Z,2.10
2022-10-25T16:31:47.259Z,3.85
2022-10-25T16:34:18.633Z,2.90
2022-10-25T16:36:50.426Z,3.10
2022-10-25T16:39:20.296Z,2.67
2022-10-25T16:41:51.469Z,2.30
2022-10-25T16:44:21.339Z,2.23
2022-10-25T16:46:51.067Z,2.50
2022-10-25T16:49:20.822Z,2.83
2022-10-25T16:51:52.244Z,3.27
2022-10-25T16:54:24.252Z,4.67
2022-10-25T16:56:53.460Z,4.43
2022-10-25T16:59:23.323Z,4.17
2022-10-25T17:01:56.645Z,4.47
2022-10-25T17:04:26.798Z,5.30
2022-10-25T17:06:56.587Z,9.73
2022-10-25T17:09:26.372Z,9.47
2022-10-25T17:11:56.219Z,13.37
2022-10-25T17:14:25.930Z,8.13
2022-10-25T17:17:00.780Z,4.50
2022-10-25T17:19:27.498Z,3.20
2022-10-25T17:21:57.438Z,6.43
2022-10-25T17:24:27.556Z,6.15
2022-10-25T17:26:57.450Z,4.20
2022-10-25T17:29:27.265Z,3.43
2022-10-25T17:31:57.158Z,2.60
2022-10-25T17:34:26.997Z,2.43
2022-10-25T17:36:56.807Z,2.87
2022-10-25T17:39:26.727Z,2.80
2022-10-25T17:41:56.503Z,3.23
2022-10-25T17:44:26.218Z,3.58
2022-10-25T17:46:58.329Z,2.87
2022-10-25T17:49:27.464Z,3.47
2022-10-25T17:51:57.272Z,3.53
2022-10-25T17:54:26.839Z,4.17
2022-10-25T17:56:58.218Z,4.00
2022-10-25T17:59:28.952Z,3.47
2022-10-25T18:01:59.310Z,4.00
2022-10-25T18:04:41.825Z,3.70
2022-10-25T18:07:00.762Z,3.07
2022-10-25T18:09:30.488Z,3.33
2022-10-25T18:12:00.241Z,3.07
2022-10-25T18:14:30.022Z,2.87
2022-10-25T18:17:00.550Z,2.50
2022-10-25T18:19:30.049Z,3.10
2022-10-25T18:22:00.650Z,3.35
2022-10-25T18:24:30.193Z,2.50
2022-10-25T18:27:00.163Z,2.93
2022-10-25T18:29:29.923Z,2.60
2022-10-25T18:31:59.649Z,3.03
2022-10-25T18:34:29.762Z,2.90
2022-10-25T18:36:59.507Z,2.60
2022-10-25T18:39:29.313Z,3.57
2022-10-25T18:41:59.059Z,3.80
2022-10-25T18:44:28.909Z,4.57
2022-10-25T18:46:58.739Z,4.07
2022-10-25T18:49:28.497Z,3.90
2022-10-25T18:51:59.009Z,3.87
2022-10-25T18:54:28.754Z,3.90
2022-10-25T18:56:58.513Z,3.97
2022-10-25T18:59:28.254Z,4.03
2022-10-25T19:01:58.527Z,4.70
2022-10-25T19:04:28.256Z,4.78
2022-10-25T19:06:58.009Z,4.70
2022-10-25T19:09:27.738Z,5.00
2022-10-25T19:11:57.485Z,5.03
2022-10-25T19:14:27.154Z,4.85
2022-10-25T19:16:56.903Z,4.37
2022-10-25T19:19:26.836Z,4.85
2022-10-25T19:21:58.065Z,5.43
2022-10-25T19:24:28.566Z,4.78
2022-10-25T19:26:58.341Z,5.03
2022-10-25T19:29:28.117Z,5.67
2022-10-25T19:31:57.873Z,6.07
2022-10-25T19:34:27.620Z,6.00
2022-10-25T19:36:57.740Z,6.00
2022-10-25T19:39:27.545Z,6.27
2022-10-25T19:41:57.283Z,7.37
2022-10-25T19:44:26.965Z,8.00
2022-10-25T19:46:56.697Z,8.13
2022-10-25T19:49:26.432Z,7.23
2022-10-25T19:51:56.242Z,8.00
2022-10-25T19:54:25.837Z,7.20
2022-10-25T19:56:55.588Z,6.80
2022-10-25T19:59:25.684Z,6.92
2022-10-25T20:01:55.652Z,7.10
2022-10-25T20:04:25.798Z,6.10
2022-10-25T20:06:55.554Z,6.63
2022-10-25T20:09:25.321Z,5.87
2022-10-25T20:11:55.052Z,6.20
2022-10-25T20:14:24.512Z,6.20
2022-10-25T20:16:54.551Z,6.30
2022-10-25T20:19:24.595Z,6.80
2022-10-25T20:21:54.592Z,7.03
2022-10-25T20:24:24.539Z,8.58
2022-10-25T20:26:54.284Z,7.23
2022-10-25T20:29:25.112Z,7.63
2022-10-25T20:31:54.828Z,7.23
2022-10-25T20:34:24.278Z,8.08
2022-10-25T20:36:54.063Z,8.53
2022-10-25T20:39:23.827Z,8.77
2022-10-25T20:41:53.604Z,8.87
2022-10-25T20:44:23.160Z,8.15
2022-10-25T20:46:52.892Z,7.93
2022-10-25T20:49:22.651Z,7.57
2022-10-25T20:51:52.381Z,7.40
2022-10-25T20:54:22.200Z,6.62
2022-10-25T20:56:51.962Z,7.17
2022-10-25T20:59:21.754Z,6.17
2022-10-25T21:01:51.677Z,6.50
2022-10-25T21:04:26.121Z,6.53
2022-10-25T21:06:53.291Z,6.25
2022-10-25T21:09:23.044Z,6.97
2022-10-25T21:11:54.332Z,6.37
2022-10-25T21:14:24.145Z,6.20
2022-10-25T21:16:53.896Z,6.20
2022-10-25T21:19:23.630Z,6.77
2022-10-25T21:21:53.404Z,6.10
2022-10-25T21:24:23.201Z,6.23
2022-10-25T21:26:54.415Z,6.57
2022-10-25T21:29:24.538Z,6.30
2022-10-25T21:31:54.276Z,6.47
2022-10-25T21:34:24.025Z,6.17
2022-10-25T21:36:54.420Z,6.10
2022-10-25T21:39:24.428Z,6.17
2022-10-25T21:41:54.733Z,5.80
2022-10-25T21:44:24.262Z,6.22
2022-10-25T21:46:54.172Z,6.80
2022-10-25T21:49:23.903Z,6.37
2022-10-25T21:51:53.702Z,6.27
2022-10-25T21:54:24.505Z,5.37
2022-10-25T21:56:55.076Z,6.42
2022-10-25T21:59:24.992Z,6.40
2022-10-25T22:01:55.601Z,5.57
2022-10-25T22:04:27.079Z,5.90
2022-10-25T22:06:56.825Z,5.63
2022-10-25T22:09:26.553Z,5.80
2022-10-25T22:11:56.285Z,6.10
2022-10-25T22:14:26.300Z,6.10
2022-10-25T22:16:56.023Z,5.30
2022-10-25T22:19:25.833Z,5.60
2022-10-25T22:21:55.640Z,6.03
2022-10-25T22:24:25.096Z,5.23
2022-10-25T22:26:54.803Z,5.70
2022-10-25T22:29:24.541Z,5.50
2022-10-25T22:31:54.254Z,5.87
2022-10-25T22:34:24.053Z,5.53
2022-10-25T22:36:53.772Z,6.27
2022-10-25T22:39:23.561Z,5.77
2022-10-25T22:41:54.653Z,5.00
2022-10-25T22:44:24.132Z,5.75
2022-10-25T22:46:54.229Z,5.10
2022-10-25T22:49:23.962Z,5.30
2022-10-25T22:51:53.699Z,6.03
2022-10-25T22:54:23.122Z,5.33
2022-10-25T22:56:52.851Z,5.80
2022-10-25T22:59:22.762Z,6.10
2022-10-25T23:01:53.587Z,6.03
2022-10-25T23:04:23.086Z,6.33
2022-10-25T23:06:52.822Z,6.13
2022-10-25T23:09:22.635Z,6.07
2022-10-25T23:11:52.357Z,5.43
2022-10-25T23:14:22.050Z,6.00
2022-10-25T23:16:51.848Z,6.20
2022-10-25T23:19:21.578Z,6.63
2022-10-25T23:21:51.383Z,5.50
2022-10-25T23:24:21.152Z,6.33
2022-10-25T23:26:50.914Z,6.00
2022-10-25T23:29:20.709Z,5.90
2022-10-25T23:31:50.456Z,6.07
2022-10-25T23:34:19.949Z,6.37
2022-10-25T23:36:49.746Z,6.07
2022-10-25T23:39:19.499Z,5.90
2022-10-25T23:41:50.880Z,6.20
2022-10-25T23:44:20.327Z,6.27
2022-10-25T23:46:50.064Z,6.10
2022-10-25T23:49:19.873Z,5.87
2022-10-25T23:51:49.937Z,5.65
2022-10-25T23:54:19.698Z,6.47
2022-10-25T23:56:49.752Z,5.37
2022-10-25T23:59:19.912Z,5.78
